Time;durP1;ratioP1;P1;durP2;ratioP2;P2;SDS_P1;SDS_P2;PMS_P1;PMS_P2;Temp;Humidity;BMP_temperature;BMP_pressure;BME280_temperature;BME280_humidity;BME280_pressure;Samples;Min_cycle;Max_cycle;Signal;HPM_P1;HPM_P2
2022/06/09 00:00:31;;;;;;;14.00;5.72;;;13.70;99.90;;;-144.05;90.07;125687.94;6127038;23;20429;-90
2022/06/09 00:03:11;;;;;;;15.77;5.13;;;13.70;99.90;;;-144.05;90.75;125687.94;6129420;23;20006;-88
2022/06/09 00:05:39;;;;;;;12.25;5.53;;;13.80;99.90;;;-144.05;90.52;125687.94;6150541;23;20050;-87
2022/06/09 00:08:07;;;;;;;16.48;6.78;;;13.80;99.90;;;-144.05;91.17;125687.94;6132209;23;20013;-85
2022/06/09 00:10:44;;;;;;;14.18;5.50;;;13.80;99.90;;;-144.05;91.61;125687.94;6132239;23;20016;-88
2022/06/09 00:13:11;;;;;;;14.80;5.07;;;13.80;99.90;;;-144.05;91.60;125687.94;6133630;23;20010;-87
2022/06/09 00:15:37;;;;;;;14.88;5.28;;;13.80;99.90;;;-144.05;91.86;125687.94;6161880;23;20001;-90
2022/06/09 00:18:03;;;;;;;13.20;5.50;;;13.80;99.90;;;-144.05;91.83;125687.94;6133585;23;20013;-91
2022/06/09 00:20:30;;;;;;;14.25;5.25;;;13.80;99.90;;;-144.05;92.07;125687.94;6159220;23;20001;-86
2022/06/09 00:22:56;;;;;;;13.05;5.28;;;13.80;99.90;;;-144.05;92.11;125687.94;6160180;23;20452;-87
2022/06/09 00:25:21;;;;;;;15.20;5.38;;;13.80;99.90;;;-144.05;91.84;125687.94;6133880;23;20036;-86
2022/06/09 00:27:48;;;;;;;21.88;5.68;;;13.70;99.90;;;-144.05;91.65;125687.94;6133665;23;20088;-87
2022/06/09 00:30:17;;;;;;;15.25;5.07;;;13.70;99.90;;;-144.05;91.88;125687.94;6159586;23;20010;-89
2022/06/09 00:32:45;;;;;;;22.85;5.75;;;13.70;99.90;;;-144.05;91.61;125687.94;6157740;23;20436;-88
2022/06/09 00:35:13;;;;;;;10.73;4.47;;;13.70;99.90;;;-144.05;91.79;125687.94;6131580;23;20009;-88
2022/06/09 00:37:39;;;;;;;15.75;5.13;;;13.70;99.90;;;-144.05;92.13;125687.94;6157348;23;20001;-87
2022/06/09 00:40:12;;;;;;;14.35;5.22;;;13.70;99.90;;;-144.05;91.48;125687.94;6130920;23;20006;-89
2022/06/09 00:42:38;;;;;;;11.95;4.65;;;13.70;99.90;;;-144.05;91.29;125687.94;6130494;23;20021;-89
2022/06/09 00:45:34;;;;;;;20.52;5.53;;;13.70;99.90;;;-144.05;91.45;125687.94;6157345;23;20001;-89
2022/06/09 00:48:38;;;;;;;13.15;4.90;;;13.70;99.90;;;-144.05;91.49;125687.94;6131784;23;20009;-86
2022/06/09 00:51:32;;;;;;;15.15;5.50;;;13.70;99.90;;;-144.05;91.25;125687.94;6131762;23;20025;-88
2022/06/09 00:54:20;;;;;;;10.25;4.38;;;13.70;99.90;;;-144.05;91.13;125687.94;6131938;23;20121;-88
2022/06/09 00:57:21;;;;;;;9.52;3.97;;;13.80;99.90;;;-144.05;90.75;125687.94;6158260;23;20010;-89
2022/06/09 00:59:59;;;;;;;14.07;4.32;;;13.80;99.90;;;-144.05;90.47;125687.94;6132445;23;20006;-87
2022/06/09 01:02:26;;;;;;;22.27;4.90;;;13.70;99.90;;;-144.05;90.38;125687.94;6159985;23;20104;-87
2022/06/09 01:04:53;;;;;;;11.65;4.38;;;13.70;99.90;;;-144.05;90.41;125687.94;6126530;23;20033;-88
2022/06/09 01:07:33;;;;;;;16.00;4.57;;;13.70;99.90;;;-144.05;90.67;125687.94;6128556;23;20432;-89
2022/06/09 01:09:59;;;;;;;14.38;4.68;;;13.70;99.90;;;-144.05;90.51;125687.94;6126867;23;20289;-87
2022/06/09 01:12:40;;;;;;;16.48;4.75;;;13.60;99.90;;;-144.05;90.34;125687.94;6127204;23;20010;-90
2022/06/09 01:15:17;;;;;;;9.95;3.80;;;13.70;99.90;;;-144.05;90.34;125687.94;6129419;23;20030;-90
2022/06/09 01:18:21;;;;;;;13.68;4.25;;;13.60;99.90;;;-144.05;90.30;125687.94;6129384;23;20033;-89
2022/06/09 01:21:40;;;;;;;12.82;3.90;;;13.60;99.90;;;-144.05;89.93;125687.94;6131586;23;20016;-90
2022/06/09 01:24:44;;;;;;;14.85;3.83;;;13.60;99.90;;;-144.05;89.81;125687.94;6130798;23;20057;-90
2022/06/09 01:28:36;;;;;;;16.08;4.10;;;13.60;99.90;;;-144.05;90.09;125687.94;6146103;23;20005;-88
2022/06/09 01:31:30;;;;;;;15.02;3.78;;;13.60;99.90;;;-144.05;90.20;125687.94;5988974;23;20075;-88
2022/06/09 01:34:58;;;;;;;8.70;3.50;;;13.60;99.90;;;-144.05;90.39;125687.94;6013415;23;20099;-90
2022/06/09 01:37:38;;;;;;;11.50;3.00;;;13.70;99.90;;;-144.05;89.72;125687.94;6120342;23;20029;-84
2022/06/09 01:40:12;;;;;;;13.57;2.88;;;13.70;99.90;;;-144.05;89.71;125687.94;6146198;23;20092;-89
2022/06/09 01:42:48;;;;;;;11.43;3.83;;;13.80;99.90;;;-144.05;89.42;125687.94;6131201;23;20043;-87
2022/06/09 01:45:27;;;;;;;12.18;3.60;;;13.80;99.90;;;-144.05;89.46;125687.94;6126844;23;20026;-87
2022/06/09 01:48:11;;;;;;;12.00;2.85;;;13.80;99.90;;;-144.05;89.06;125687.94;6128022;23;20036;-87
2022/06/09 01:51:06;;;;;;;9.18;3.22;;;13.90;99.90;;;-144.05;88.65;125687.94;6126991;23;20021;-88
2022/06/09 01:53:52;;;;;;;10.55;3.17;;;13.90;99.90;;;-144.05;88.31;125687.94;6125984;23;20006;-86
2022/06/09 01:56:36;;;;;;;13.65;2.92;;;13.90;99.90;;;-144.05;88.12;125687.94;6126682;23;20022;-87
2022/06/09 01:59:20;;;;;;;14.38;3.85;;;13.90;99.90;;;-144.05;87.80;125687.94;6126990;23;20278;-86
2022/06/09 02:01:59;;;;;;;8.73;2.60;;;13.90;99.90;;;-144.05;87.80;125687.94;6126199;23;20020;-86
2022/06/09 02:04:37;;;;;;;9.55;3.10;;;14.00;99.90;;;-144.05;87.25;125687.94;6126402;23;20118;-86
2022/06/09 02:07:09;;;;;;;15.00;3.60;;;14.00;99.90;;;-144.05;87.08;125687.94;6126456;23;20010;-85
2022/06/09 02:09:38;;;;;;;8.85;2.72;;;14.00;99.90;;;-144.05;87.23;125687.94;6129301;23;20017;-86
2022/06/09 02:12:18;;;;;;;13.98;3.20;;;14.00;99.90;;;-144.05;86.65;125687.94;6126901;23;20014;-89
2022/06/09 02:14:57;;;;;;;12.23;3.10;;;14.00;99.90;;;-144.05;86.35;125687.94;6129357;23;20439;-88
2022/06/09 02:17:24;;;;;;;7.03;2.83;;;14.00;99.90;;;-144.05;86.70;125687.94;6127321;23;20010;-89
2022/06/09 02:19:52;;;;;;;8.73;2.85;;;14.00;99.90;;;-144.05;86.55;125687.94;6127165;23;20013;-88
2022/06/09 02:22:18;;;;;;;9.27;2.92;;;14.00;99.90;;;-144.05;86.16;125687.94;6127172;23;20021;-86
2022/06/09 02:24:44;;;;;;;10.93;3.63;;;14.00;99.90;;;-144.05;86.16;125687.94;6127000;23;20432;-86
2022/06/09 02:27:10;;;;;;;12.27;2.67;;;14.00;99.90;;;-144.05;86.10;125687.94;6128321;23;20010;-88
2022/06/09 02:29:37;;;;;;;8.13;3.17;;;14.00;99.90;;;-144.05;85.67;125687.94;6132503;23;20028;-86
2022/06/09 02:32:04;;;;;;;8.43;2.38;;;14.00;99.90;;;-144.05;85.70;125687.94;6127516;23;20449;-86
2022/06/09 02:34:30;;;;;;;8.77;3.25;;;14.00;99.90;;;-144.05;85.58;125687.94;6128867;23;20024;-86
2022/06/09 02:36:56;;;;;;;14.65;3.10;;;14.10;99.90;;;-144.05;85.24;125687.94;6126993;23;20456;-87
2022/06/09 02:39:22;;;;;;;14.18;3.42;;;14.00;99.90;;;-144.05;85.40;125687.94;6127268;23;20021;-87
2022/06/09 02:41:48;;;;;;;14.13;3.70;;;14.00;99.90;;;-144.05;85.79;125687.94;6126993;23;20010;-88
2022/06/09 02:44:14;;;;;;;13.38;3.65;;;14.00;99.90;;;-144.05;85.68;125687.94;6127026;23;20028;-89
2022/06/09 02:46:40;;;;;;;21.27;4.68;;;14.00;99.90;;;-144.05;85.65;125687.94;6128771;23;20065;-89
2022/06/09 02:49:06;;;;;;;13.60;4.05;;;14.00;99.90;;;-144.05;85.23;125687.94;6127653;23;20145;-87
2022/06/09 02:51:38;;;;;;;13.82;3.78;;;14.00;99.90;;;-144.05;85.30;125687.94;6127584;23;20010;-89
2022/06/09 02:54:11;;;;;;;16.65;4.40;;;14.00;99.90;;;-144.05;85.18;125687.94;6128616;23;20289;-87
2022/06/09 02:56:41;;;;;;;14.73;4.00;;;14.00;99.90;;;-144.05;85.46;125687.94;6130667;23;20033;-88
2022/06/09 02:59:06;;;;;;;13.38;4.22;;;14.00;99.90;;;-144.05;85.22;125687.94;6131863;23;20002;-90
2022/06/09 03:01:33;;;;;;;16.40;4.22;;;14.00;99.90;;;-144.05;85.28;125687.94;6130702;23;20053;-89
2022/06/09 03:03:59;;;;;;;14.48;4.38;;;14.00;99.90;;;-144.05;85.64;125687.94;6132588;23;20436;-86
2022/06/09 03:06:25;;;;;;;10.75;4.43;;;14.00;99.90;;;-144.05;85.36;125687.94;6158620;23;20005;-88
2022/06/09 03:08:51;;;;;;;16.52;5.03;;;13.90;99.90;;;-144.05;86.19;125687.94;6159603;23;20033;-87
2022/06/09 03:11:17;;;;;;;18.63;5.90;;;13.90;99.90;;;-144.05;85.78;125687.94;6133117;23;20016;-88
2022/06/09 03:13:45;;;;;;;13.68;5.43;;;13.90;99.90;;;-144.05;85.33;125687.94;6133866;23;20005;-90
2022/06/09 03:16:15;;;;;;;16.23;5.38;;;13.90;99.90;;;-144.05;85.19;125687.94;6134189;23;20009;-90
2022/06/09 03:18:43;;;;;;;17.55;5.32;;;13.90;99.90;;;-144.05;85.27;125687.94;6160027;23;20028;-87
2022/06/09 03:21:12;;;;;;;12.40;5.13;;;13.90;99.90;;;-144.05;85.46;125687.94;6133807;23;20085;-88
2022/06/09 03:23:39;;;;;;;21.55;5.85;;;13.90;99.90;;;-144.05;85.22;125687.94;6145215;23;20009;-86
2022/06/09 03:26:07;;;;;;;16.20;4.93;;;13.90;99.90;;;-144.05;85.21;125687.94;6180563;23;20021;-86
2022/06/09 03:28:35;;;;;;;12.65;4.70;;;13.90;99.90;;;-144.05;85.25;125687.94;6181433;23;20078;-85
2022/06/09 03:31:03;;;;;;;14.27;4.93;;;13.90;99.90;;;-144.05;85.39;125687.94;6153801;23;20012;-89
2022/06/09 03:33:29;;;;;;;19.17;5.78;;;13.90;99.90;;;-144.05;85.51;125687.94;6153940;23;20009;-86
2022/06/09 03:35:55;;;;;;;16.45;5.47;;;13.90;99.90;;;-144.05;85.42;125687.94;6154930;23;20008;-89
2022/06/09 03:38:21;;;;;;;19.02;5.45;;;13.90;99.90;;;-144.05;85.06;125687.94;6180718;23;20005;-87
2022/06/09 03:40:47;;;;;;;14.57;5.18;;;13.90;99.90;;;-144.05;85.23;125687.94;6180795;23;20048;-87
2022/06/09 03:43:13;;;;;;;19.02;6.07;;;13.90;99.90;;;-144.05;85.34;125687.94;6165067;23;20010;-89
2022/06/09 03:45:40;;;;;;;15.25;5.80;;;13.90;99.90;;;-144.05;85.24;125687.94;6135488;23;20006;-88
2022/06/09 03:48:06;;;;;;;18.50;6.45;;;13.90;99.90;;;-144.05;85.12;125687.94;6134702;23;20013;-87
2022/06/09 03:50:34;;;;;;;15.98;7.13;;;13.90;99.90;;;-144.05;85.11;125687.94;6134430;23;20009;-88
2022/06/09 03:53:00;;;;;;;13.90;6.28;;;13.90;99.90;;;-144.05;84.72;125687.94;6134361;23;20451;-86
2022/06/09 03:55:27;;;;;;;20.00;8.27;;;14.00;99.90;;;-144.05;84.94;125687.94;6161027;23;20080;-86
2022/06/09 03:57:53;;;;;;;21.50;8.70;;;13.80;99.90;;;-144.05;84.91;125687.94;6134294;23;20044;-90
2022/06/09 04:00:26;;;;;;;19.33;8.57;;;13.80;99.90;;;-144.05;84.78;125687.94;6159722;23;20029;-89
2022/06/09 04:02:53;;;;;;;22.40;8.95;;;13.80;99.90;;;-144.05;84.99;125687.94;6133876;23;20016;-86
2022/06/09 04:05:20;;;;;;;17.75;9.18;;;13.80;99.90;;;-144.05;84.86;125687.94;6159983;23;20024;-88
2022/06/09 04:07:46;;;;;;;27.85;11.02;;;13.80;99.90;;;-144.05;84.43;125687.94;6159154;23;20005;-89
2022/06/09 04:10:30;;;;;;;20.98;9.98;;;13.80;99.90;;;-144.05;84.46;125687.94;6133152;23;20473;-89
2022/06/09 04:12:57;;;;;;;27.60;10.38;;;13.80;99.90;;;-144.05;84.62;125687.94;6158754;23;20002;-88
2022/06/09 04:15:23;;;;;;;16.73;9.23;;;13.90;99.90;;;-144.05;84.67;125687.94;6132668;23;20177;-88
2022/06/09 04:17:52;;;;;;;21.35;10.50;;;13.90;99.90;;;-144.05;84.52;125687.94;6132535;23;20005;-89
2022/06/09 04:20:26;;;;;;;27.17;11.38;;;13.90;99.90;;;-144.05;84.62;125687.94;6132688;23;20009;-89
2022/06/09 04:22:53;;;;;;;25.10;10.27;;;13.90;99.90;;;-144.05;84.56;125687.94;6139827;23;20085;-88
2022/06/09 04:25:20;;;;;;;23.85;10.52;;;13.90;99.90;;;-144.05;84.25;125687.94;6141926;23;20009;-87
2022/06/09 04:27:47;;;;;;;21.75;9.88;;;13.90;99.90;;;-144.05;83.74;125687.94;6170065;23;20082;-87
2022/06/09 04:30:15;;;;;;;17.00;10.10;;;14.00;99.90;;;-144.05;84.00;125687.94;6150577;23;20013;-87
2022/06/09 04:32:41;;;;;;;24.17;10.13;;;14.10;99.90;;;-144.05;83.16;125687.94;6143097;23;20407;-87
2022/06/09 04:35:08;;;;;;;25.63;10.45;;;14.20;99.90;;;-144.05;82.86;125687.94;6173011;23;20080;-85
2022/06/09 04:40:20;;;;;;;24.95;10.95;;;14.30;99.90;;;-144.05;82.51;125687.94;6176373;23;20021;-86
2022/06/09 04:42:46;;;;;;;28.73;11.80;;;14.30;99.90;;;-144.05;83.00;125687.94;6140552;23;20009;-86
2022/06/09 04:45:14;;;;;;;21.35;10.68;;;14.30;99.90;;;-144.05;82.89;125687.94;6152172;23;20020;-86
2022/06/09 04:47:40;;;;;;;22.20;11.32;;;14.20;99.90;;;-144.05;82.37;125687.94;6154191;23;20009;-88
2022/06/09 04:50:09;;;;;;;24.38;12.43;;;14.20;99.90;;;-144.05;82.45;125687.94;6154139;23;20018;-87
2022/06/09 04:52:35;;;;;;;25.38;11.40;;;14.30;99.90;;;-144.05;82.47;125687.94;6179685;23;20005;-88
2022/06/09 04:55:01;;;;;;;25.02;13.85;;;14.20;99.90;;;-144.05;82.39;125687.94;6154419;23;20022;-87
2022/06/09 04:57:27;;;;;;;27.98;12.27;;;14.30;99.90;;;-144.05;82.43;125687.94;6152883;23;20064;-88
2022/06/09 04:59:54;;;;;;;29.20;13.63;;;14.30;99.90;;;-144.05;82.96;125687.94;6148394;23;20233;-88
2022/06/09 05:02:20;;;;;;;24.95;13.35;;;14.30;99.90;;;-144.05;82.48;125687.94;6144262;23;20002;-87
2022/06/09 05:04:46;;;;;;;28.70;13.95;;;14.30;99.90;;;-144.05;82.22;125687.94;6136631;23;20006;-87
2022/06/09 05:07:12;;;;;;;37.78;16.40;;;14.40;99.90;;;-144.05;82.49;125687.94;6138836;23;20013;-88
2022/06/09 05:09:44;;;;;;;32.75;15.02;;;14.30;99.90;;;-144.05;82.09;125687.94;6131139;23;20014;-88
2022/06/09 05:12:10;;;;;;;28.65;15.07;;;14.40;99.90;;;-144.05;82.21;125687.94;6128229;23;20021;-87
2022/06/09 05:14:36;;;;;;;29.63;16.00;;;14.30;99.90;;;-144.05;82.31;125687.94;6128582;23;20061;-88
2022/06/09 05:17:02;;;;;;;37.55;15.75;;;14.30;99.90;;;-144.05;82.54;125687.94;6128865;23;20006;-87
2022/06/09 05:19:29;;;;;;;30.08;16.58;;;14.30;99.90;;;-144.05;82.19;125687.94;6128936;23;20048;-87
2022/06/09 05:21:55;;;;;;;35.55;16.25;;;14.30;99.90;;;-144.05;82.08;125687.94;6132043;23;20341;-87
2022/06/09 05:24:21;;;;;;;33.38;15.95;;;14.30;99.90;;;-144.05;82.72;125687.94;6129764;23;20009;-88
2022/06/09 05:26:47;;;;;;;28.38;15.43;;;14.30;99.90;;;-144.05;82.57;125687.94;6130119;23;20013;-87
2022/06/09 05:29:14;;;;;;;36.58;17.73;;;14.30;99.90;;;-144.05;82.43;125687.94;6130003;23;20017;-86
2022/06/09 05:31:40;;;;;;;27.48;16.63;;;14.30;99.90;;;-144.05;82.91;125687.94;6129675;23;20017;-88
2022/06/09 05:34:06;;;;;;;32.67;16.90;;;14.30;99.90;;;-144.05;82.92;125687.94;6131951;23;20061;-86
2022/06/09 05:36:33;;;;;;;32.30;17.05;;;14.30;99.90;;;-144.05;83.15;125687.94;6133029;23;20483;-87
2022/06/09 05:45:10;;;;;;;36.05;18.73;;;14.30;99.90;;;-144.05;82.27;125687.94;6104108;23;20025;-85
2022/06/09 05:47:36;;;;;;;32.03;17.42;;;14.30;99.90;;;-144.05;82.44;125687.94;6100776;23;20010;-87
2022/06/09 05:50:04;;;;;;;34.88;18.65;;;14.40;99.90;;;-144.05;82.20;125687.94;6100521;23;20017;-85
2022/06/09 05:52:31;;;;;;;34.45;17.92;;;14.40;99.90;;;-144.05;81.98;125687.94;6102116;23;20011;-87
2022/06/09 05:54:58;;;;;;;29.75;15.95;;;14.50;99.90;;;-144.05;81.86;125687.94;6099790;23;20472;-87
2022/06/09 05:57:26;;;;;;;34.25;18.17;;;14.60;99.90;;;-144.05;81.12;125687.94;6099515;23;20006;-87
2022/06/09 05:59:54;;;;;;;37.65;18.40;;;14.70;99.90;;;-144.05;81.16;125687.94;6102246;23;20093;-87
2022/06/09 06:02:26;;;;;;;30.38;16.48;;;14.70;99.90;;;-144.05;80.55;125687.94;6104375;23;20010;-88
2022/06/09 06:04:53;;;;;;;31.15;17.42;;;14.70;99.90;;;-144.05;80.97;125687.94;6101806;23;20014;-88
2022/06/09 06:07:19;;;;;;;34.63;18.05;;;14.80;99.90;;;-144.05;80.47;125687.94;6101353;23;20020;-88
2022/06/09 06:09:45;;;;;;;33.75;16.70;;;14.80;99.90;;;-144.05;80.32;125687.94;6102207;23;20010;-87
2022/06/09 06:12:13;;;;;;;25.73;16.55;;;14.90;99.90;;;-144.05;79.72;125687.94;6101273;23;20018;-88
2022/06/09 06:14:41;;;;;;;27.63;17.52;;;14.90;99.90;;;-144.05;78.93;125687.94;6101594;23;20010;-85
2022/06/09 06:17:07;;;;;;;30.40;16.63;;;14.90;99.90;;;-144.05;78.72;125687.94;6101518;23;20006;-86
2022/06/09 06:19:33;;;;;;;30.13;17.23;;;14.90;99.90;;;-144.05;78.90;125687.94;6102207;23;20065;-88
2022/06/09 06:21:59;;;;;;;31.25;16.88;;;14.90;99.90;;;-144.05;79.28;125687.94;6102153;23;20037;-87
2022/06/09 06:24:25;;;;;;;30.10;16.00;;;15.00;99.90;;;-144.05;79.00;125687.94;6102178;23;20058;-87
2022/06/09 06:26:52;;;;;;;26.02;17.35;;;15.00;99.90;;;-144.05;79.23;125687.94;6103356;23;20093;-89
2022/06/09 06:29:25;;;;;;;35.83;16.85;;;15.00;99.90;;;-144.05;78.83;125687.94;6114694;23;20036;-89
2022/06/09 06:31:53;;;;;;;32.00;17.48;;;15.00;99.90;;;-144.05;78.58;125687.94;6115569;23;20010;-87
2022/06/09 06:34:22;;;;;;;29.75;16.67;;;15.00;99.90;;;-144.05;78.68;125687.94;6106716;23;20033;-87
2022/06/09 06:36:48;;;;;;;34.05;18.58;;;15.00;99.90;;;-144.05;78.66;125687.94;6100867;23;20200;-87
2022/06/09 06:39:14;;;;;;;32.65;17.98;;;15.10;99.90;;;-144.05;78.43;125687.94;6101083;23;20007;-87
2022/06/09 06:41:41;;;;;;;29.45;17.10;;;15.10;99.90;;;-144.05;77.93;125687.94;6100872;23;20010;-88
2022/06/09 06:44:07;;;;;;;35.97;18.88;;;15.10;99.90;;;-144.05;77.91;125687.94;6101620;23;20018;-88
2022/06/09 06:46:34;;;;;;;31.10;18.85;;;15.20;99.90;;;-144.05;77.46;125687.94;6101740;23;20025;-87
2022/06/09 06:49:00;;;;;;;29.92;17.48;;;15.20;99.90;;;-144.05;77.26;125687.94;6102230;23;20550;-86
2022/06/09 06:51:26;;;;;;;32.20;17.48;;;15.30;99.90;;;-144.05;76.67;125687.94;6102420;23;20065;-87
2022/06/09 06:53:52;;;;;;;30.48;17.38;;;15.40;99.90;;;-144.05;76.22;125687.94;6104436;23;20006;-90
2022/06/09 06:56:20;;;;;;;27.88;17.67;;;15.40;99.90;;;-144.05;76.76;125687.94;6109984;23;20065;-88
2022/06/09 06:58:46;;;;;;;31.80;17.50;;;15.50;99.90;;;-144.05;75.77;125687.94;6106381;23;20141;-89
2022/06/09 07:01:12;;;;;;;35.55;19.92;;;15.50;99.90;;;-144.05;75.33;125687.94;6102497;23;20047;-88
2022/06/09 07:03:45;;;;;;;26.63;15.95;;;15.50;99.90;;;-144.05;75.05;125687.94;6103304;23;20465;-88
2022/06/09 07:06:11;;;;;;;27.10;17.20;;;15.60;99.90;;;-144.05;75.32;125687.94;6113162;23;20011;-88
2022/06/09 07:08:37;;;;;;;29.02;17.83;;;15.70;99.90;;;-144.05;74.36;125687.94;6112973;23;20034;-88
2022/06/09 07:11:07;;;;;;;29.27;17.25;;;15.90;99.90;;;-144.05;73.36;125687.94;6114565;23;20010;-89
2022/06/09 07:13:36;;;;;;;29.02;18.33;;;16.20;99.90;;;-144.05;72.00;125687.94;6101041;23;20024;-85
2022/06/09 07:16:05;;;;;;;31.13;17.95;;;16.30;99.90;;;-144.05;71.02;125687.94;6102161;23;20026;-88
2022/06/09 07:18:34;;;;;;;27.25;16.60;;;16.60;99.90;;;-144.05;69.01;125687.94;6101094;23;20006;-86
2022/06/09 07:21:02;;;;;;;31.02;17.30;;;16.90;99.90;;;-144.05;67.46;125687.94;6100846;23;20002;-87
2022/06/09 07:23:30;;;;;;;31.42;17.58;;;17.10;99.90;;;-144.05;69.23;125687.94;6100456;23;20021;-89
2022/06/09 07:26:01;;;;;;;33.15;19.95;;;16.90;99.90;;;-144.05;69.21;125687.94;6101566;23;20429;-87
2022/06/09 07:28:28;;;;;;;31.15;20.00;;;16.70;99.90;;;-144.05;70.65;125687.94;6100255;23;20010;-86
2022/06/09 07:30:59;;;;;;;31.27;19.80;;;16.40;99.90;;;-144.05;71.65;125687.94;6100443;23;20061;-87
2022/06/09 07:33:30;;;;;;;36.42;20.52;;;16.20;99.90;;;-144.05;72.26;125687.94;6100044;23;20018;-87
2022/06/09 07:35:59;;;;;;;31.05;20.00;;;16.10;99.90;;;-144.05;72.80;125687.94;6099712;23;20017;-86
2022/06/09 07:38:27;;;;;;;35.97;19.98;;;16.00;99.90;;;-144.05;72.92;125687.94;6100551;23;20448;-86
2022/06/09 07:40:54;;;;;;;42.45;22.02;;;15.90;99.90;;;-144.05;74.14;125687.94;6101716;23;20014;-86
2022/06/09 07:43:21;;;;;;;34.70;21.80;;;15.80;99.90;;;-144.05;74.85;125687.94;6100253;23;20017;-87
2022/06/09 07:45:48;;;;;;;37.67;23.30;;;15.60;99.90;;;-144.05;75.32;125687.94;6100346;23;20010;-86
2022/06/09 07:48:15;;;;;;;33.58;23.15;;;15.50;99.90;;;-144.05;76.15;125687.94;6099688;23;20010;-87
2022/06/09 07:50:41;;;;;;;38.15;24.67;;;15.50;99.90;;;-144.05;76.48;125687.94;6100143;23;20078;-88
2022/06/09 07:53:08;;;;;;;34.55;22.52;;;15.40;99.90;;;-144.05;76.76;125687.94;6099301;23;20021;-87
2022/06/09 07:55:34;;;;;;;42.70;24.52;;;15.40;99.90;;;-144.05;76.74;125687.94;6099059;23;20381;-88
2022/06/09 07:58:02;;;;;;;45.38;26.45;;;15.40;99.90;;;-144.05;76.52;125687.94;6100585;23;20006;-88
2022/06/09 08:00:29;;;;;;;35.42;23.58;;;15.40;99.90;;;-144.05;76.77;125687.94;6099702;23;20018;-89
2022/06/09 08:02:57;;;;;;;33.92;21.80;;;15.40;99.90;;;-144.05;76.96;125687.94;6100531;23;20033;-88
2022/06/09 08:05:26;;;;;;;30.88;21.10;;;15.50;99.90;;;-144.05;77.13;125687.94;6098986;23;20014;-86
2022/06/09 08:07:54;;;;;;;43.38;23.98;;;15.60;99.90;;;-144.05;76.48;125687.94;6099120;23;20014;-86
2022/06/09 08:10:26;;;;;;;33.22;22.90;;;15.70;99.90;;;-144.05;76.53;125687.94;6099844;23;20018;-87
2022/06/09 08:13:00;;;;;;;37.83;22.52;;;15.90;99.90;;;-144.05;75.63;125687.94;6099978;23;20062;-86
2022/06/09 08:15:28;;;;;;;33.22;23.52;;;16.30;99.90;;;-144.05;72.12;125687.94;6099196;23;20452;-88
2022/06/09 08:17:58;;;;;;;32.38;23.85;;;16.80;99.90;;;-144.05;70.96;125687.94;6099704;23;20070;-89
2022/06/09 08:20:32;;;;;;;29.30;21.40;;;17.20;99.90;;;-144.05;68.60;125687.94;6099644;23;20006;-86
2022/06/09 08:23:08;;;;;;;31.80;19.98;;;17.50;99.90;;;-144.05;68.59;125687.94;6102173;23;20020;-88
2022/06/09 08:25:36;;;;;;;;;;;17.60;99.90;;;-144.05;68.74;125687.94;6102156;23;20485;-87
2022/06/09 08:28:04;;;;;;;29.98;18.98;;;17.50;99.90;;;-144.05;70.00;125687.94;6101025;23;20000;-88
2022/06/09 08:30:34;;;;;;;35.97;21.10;;;17.40;99.90;;;-144.05;70.14;125687.94;6101187;23;20066;-89
2022/06/09 08:33:01;;;;;;;34.10;22.17;;;17.20;99.90;;;-144.05;69.95;125687.94;6102752;23;20010;-88
2022/06/09 08:35:28;;;;;;;31.08;21.52;;;17.30;99.90;;;-144.05;68.94;125687.94;6099712;23;20018;-88
2022/06/09 08:37:55;;;;;;;31.20;20.85;;;17.40;99.90;;;-144.05;68.48;125687.94;6099366;23;20002;-87
2022/06/09 08:40:45;;;;;;;30.13;20.85;;;17.70;99.90;;;-144.05;66.23;125687.94;6098742;23;20030;-89
2022/06/09 08:43:26;;;;;;;31.23;20.10;;;18.20;99.90;;;-144.05;62.50;125687.94;6100018;23;20340;-89
2022/06/09 08:45:57;;;;;;;35.78;18.95;;;18.70;99.90;;;-144.05;62.00;125687.94;6100831;23;20018;-89
2022/06/09 08:48:34;;;;;;;31.83;18.75;;;18.80;99.90;;;-144.05;61.94;125687.94;6097414;23;20413;-87
2022/06/09 08:51:36;;;;;;;27.95;18.83;;;18.80;99.90;;;-144.05;62.49;125687.94;6122868;23;20017;-88
2022/06/09 08:54:28;;;;;;;26.50;17.60;;;18.80;99.90;;;-144.05;61.34;125687.94;6098258;23;20010;-87
2022/06/09 08:56:56;;;;;;;28.73;17.83;;;19.30;99.90;;;-144.05;60.92;125687.94;6098516;23;20018;-87
2022/06/09 08:59:37;;;;;;;25.83;16.98;;;19.60;99.90;;;-144.05;58.35;125687.94;6096983;23;20011;-88
2022/06/09 09:02:38;;;;;;;27.92;16.95;;;19.90;99.90;;;-144.05;58.59;125687.94;6098515;23;20437;-90
2022/06/09 09:05:39;;;;;;;28.25;17.45;;;20.00;99.90;;;-144.05;58.48;125687.94;6099436;23;20015;-89
2022/06/09 09:08:09;;;;;;;24.95;16.45;;;20.00;99.90;;;-144.05;57.80;125687.94;6100707;23;20006;-88
2022/06/09 09:10:51;;;;;;;25.90;15.02;;;20.30;99.90;;;-144.05;56.71;125687.94;6104858;23;20054;-87
2022/06/09 09:13:59;;;;;;;27.27;18.55;;;20.10;99.90;;;-144.05;57.76;125687.94;6104052;23;20006;-87
2022/06/09 09:17:13;;;;;;;30.05;18.80;;;20.20;99.90;;;-144.05;55.79;125687.94;6099771;23;20077;-87
2022/06/09 09:19:51;;;;;;;23.05;16.45;;;20.80;99.90;;;-144.05;53.28;125687.94;6099788;23;20050;-87
2022/06/09 09:22:38;;;;;;;23.60;14.68;;;21.70;99.90;;;-144.05;50.51;125687.94;6100547;23;20069;-87
2022/06/09 09:26:03;;;;;;;22.77;14.32;;;21.80;99.90;;;-144.05;53.64;125687.94;6099048;23;20309;-86
2022/06/09 09:28:54;;;;;;;22.42;14.07;;;21.10;99.90;;;-144.05;53.93;125687.94;6104226;23;20010;-87
2022/06/09 09:31:57;;;;;;;22.05;13.90;;;21.40;99.90;;;-144.05;53.67;125687.94;6104684;23;20010;-87
2022/06/09 09:34:35;;;;;;;16.55;11.73;;;21.70;99.90;;;-144.05;49.04;125687.94;6105332;23;20030;-88
2022/06/09 09:37:38;;;;;;;17.77;11.50;;;22.50;99.90;;;-144.05;48.61;125687.94;6109971;23;20018;-87
2022/06/09 09:40:44;;;;;;;17.13;12.02;;;22.50;99.90;;;-144.05;47.45;125687.94;6106261;23;20318;-89
2022/06/09 09:43:23;;;;;;;17.48;12.25;;;22.80;99.90;;;-144.05;47.70;125687.94;6106098;23;20038;-89
2022/06/09 09:45:56;;;;;;;17.17;11.38;;;23.30;99.90;;;-144.05;46.34;125687.94;6107026;23;20013;-89
2022/06/09 09:48:22;;;;;;;16.63;10.50;;;23.20;99.90;;;-144.05;45.79;125687.94;6108350;23;20017;-89
2022/06/09 09:51:00;;;;;;;17.65;10.00;;;23.50;99.90;;;-144.05;45.49;125687.94;6107251;23;20353;-88
2022/06/09 09:53:46;;;;;;;17.75;11.48;;;23.70;99.90;;;-144.05;44.78;125687.94;6107310;23;20070;-89
2022/06/09 09:56:20;;;;;;;22.10;9.68;;;23.80;99.90;;;-144.05;43.65;125687.94;6108142;23;20085;-88
2022/06/09 09:58:50;;;;;;;12.40;8.63;;;24.00;99.90;;;-144.05;43.95;125687.94;6107541;23;20410;-88
2022/06/09 10:01:22;;;;;;;14.15;9.23;;;24.00;99.90;;;-144.05;44.71;125687.94;6108670;23;20010;-88
2022/06/09 10:10:26;;;;;;;14.73;9.73;;;23.40;99.90;;;-144.05;45.01;125687.94;6109464;23;20038;-87
2022/06/09 10:12:56;;;;;;;13.98;8.60;;;23.30;99.90;;;-144.05;46.13;125687.94;6108637;23;20021;-87
2022/06/09 10:15:26;;;;;;;11.30;8.50;;;23.10;99.90;;;-144.05;44.18;125687.94;6108365;23;20007;-87
2022/06/09 10:17:59;;;;;;;13.02;7.90;;;23.20;99.90;;;-144.05;44.72;125687.94;6108160;23;20002;-89
2022/06/09 10:20:59;;;;;;;11.65;7.85;;;23.20;99.90;;;-144.05;45.11;125687.94;6107118;23;20007;-89
2022/06/09 10:24:06;;;;;;;13.75;9.35;;;22.60;99.90;;;-144.05;45.63;125687.94;6107495;23;20377;-88
2022/06/09 10:26:40;;;;;;;14.13;10.63;;;22.70;99.90;;;-144.05;45.41;125687.94;6104932;23;20033;-87
2022/06/09 10:30:13;;;;;;;16.85;9.45;;;23.10;99.90;;;-144.05;44.48;125687.94;6106273;23;20010;-88